createdAt,value
2023-02-12T00:00:44.404Z,15.10
2023-02-12T00:03:10.995Z,14.68
2023-02-12T00:05:38.586Z,15.27
2023-02-12T00:08:05.050Z,14.65
2023-02-12T00:10:31.466Z,15.10
2023-02-12T00:12:57.766Z,16.15
2023-02-12T00:15:24.308Z,15.10
2023-02-12T00:17:50.690Z,14.88
2023-02-12T00:20:17.286Z,14.88
2023-02-12T00:22:43.707Z,14.73
2023-02-12T00:25:10.083Z,15.30
2023-02-12T00:27:36.372Z,14.52
2023-02-12T00:30:02.971Z,13.43
2023-02-12T00:32:29.311Z,13.80
2023-02-12T00:34:55.601Z,12.50
2023-02-12T00:37:21.889Z,13.70
2023-02-12T00:39:48.220Z,14.48
2023-02-12T00:42:14.533Z,13.88
2023-02-12T00:44:40.823Z,12.52
2023-02-12T00:47:07.153Z,14.25
2023-02-12T00:49:33.441Z,13.05
2023-02-12T00:52:04.643Z,13.05
2023-02-12T00:54:32.169Z,13.65
2023-02-12T00:56:58.743Z,11.88
2023-02-12T00:59:26.297Z,12.55
2023-02-12T01:01:54.629Z,13.00
2023-02-12T01:04:21.587Z,12.35
2023-02-12T01:06:47.967Z,12.35
2023-02-12T01:09:14.995Z,12.27
2023-02-12T01:11:41.432Z,12.02
2023-02-12T01:14:07.781Z,12.32
2023-02-12T01:16:34.177Z,12.45
2023-02-12T01:19:00.497Z,12.68
2023-02-12T01:21:29.275Z,13.73
2023-02-12T01:23:56.148Z,12.63
2023-02-12T01:26:23.077Z,12.68
2023-02-12T01:28:52.788Z,12.20
2023-02-12T01:31:23.022Z,12.05
2023-02-12T01:33:51.318Z,11.23
2023-02-12T01:36:18.168Z,12.15
2023-02-12T01:38:44.582Z,12.27
2023-02-12T01:41:14.083Z,11.88
2023-02-12T01:43:40.975Z,13.23
2023-02-12T01:46:12.390Z,12.73
2023-02-12T01:48:43.500Z,11.43
2023-02-12T01:51:13.807Z,12.40
2023-02-12T01:53:46.917Z,11.43
2023-02-12T01:56:13.982Z,12.82
2023-02-12T01:58:43.004Z,11.80
2023-02-12T02:01:15.251Z,12.18
2023-02-12T02:03:45.541Z,13.00
2023-02-12T02:06:16.209Z,11.85
2023-02-12T02:08:42.676Z,11.95
2023-02-12T02:11:09.658Z,11.50
2023-02-12T02:13:36.013Z,11.45
2023-02-12T02:16:12.917Z,10.82
2023-02-12T02:18:49.814Z,12.43
2023-02-12T02:21:51.349Z,12.57
2023-02-12T02:24:32.849Z,11.82
2023-02-12T02:27:14.848Z,12.50
2023-02-12T02:29:54.316Z,10.50
2023-02-12T02:32:26.798Z,12.98
2023-02-12T02:35:09.350Z,11.80
2023-02-12T02:37:57.072Z,12.07
2023-02-12T02:41:04.966Z,11.75
2023-02-12T02:43:52.272Z,11.57
2023-02-12T02:46:34.125Z,11.07
2023-02-12T02:49:04.650Z,10.13
2023-02-12T02:51:35.291Z,11.25
2023-02-12T02:54:25.968Z,11.07
2023-02-12T02:57:00.469Z,11.40
2023-02-12T02:59:32.337Z,12.18
2023-02-12T03:03:49.983Z,10.57
2023-02-12T03:06:24.554Z,10.65
2023-02-12T03:08:56.175Z,11.02
2023-02-12T03:11:29.034Z,11.88
2023-02-12T03:14:02.600Z,12.93
2023-02-12T03:16:37.825Z,11.80
2023-02-12T03:19:14.298Z,11.85
2023-02-12T03:21:51.732Z,11.63
2023-02-12T03:24:31.641Z,11.80
2023-02-12T03:29:33.824Z,10.20
2023-02-12T03:32:19.457Z,11.77
2023-02-12T03:35:07.424Z,11.30
2023-02-12T03:37:39.364Z,11.52
2023-02-12T03:40:43.481Z,12.27
2023-02-12T03:43:23.032Z,10.75
2023-02-12T03:45:58.432Z,11.75
2023-02-12T03:48:47.731Z,11.77
2023-02-12T03:51:23.469Z,11.32
2023-02-12T03:53:49.864Z,11.57
2023-02-12T03:56:23.844Z,12.55
2023-02-12T03:58:50.263Z,11.73
2023-02-12T04:01:17.222Z,12.10
2023-02-12T04:03:43.846Z,12.15
2023-02-12T04:06:39.694Z,12.52
2023-02-12T04:09:09.081Z,11.77
2023-02-12T04:12:03.304Z,12.13
2023-02-12T04:14:47.842Z,10.90
2023-02-12T04:17:32.864Z,11.75
2023-02-12T04:20:27.210Z,12.05
2023-02-12T04:22:58.981Z,10.88
2023-02-12T04:25:52.270Z,11.48
2023-02-12T04:28:44.060Z,11.70
2023-02-12T04:31:23.812Z,10.88
2023-02-12T04:33:56.152Z,11.65
2023-02-12T04:36:32.645Z,11.43
2023-02-12T04:39:02.954Z,11.57
2023-02-12T04:41:30.974Z,11.88
2023-02-12T04:43:57.517Z,12.13
2023-02-12T04:46:23.834Z,11.15
2023-02-12T04:48:58.513Z,12.48
2023-02-12T04:51:24.837Z,11.90
2023-02-12T04:53:51.144Z,11.18
2023-02-12T04:56:17.699Z,11.48
2023-02-12T04:58:43.998Z,11.55
2023-02-12T05:01:10.728Z,12.20
2023-02-12T05:03:38.092Z,11.55
2023-02-12T05:06:10.139Z,11.63
2023-02-12T05:08:36.446Z,11.48
2023-02-12T05:11:08.260Z,12.68
2023-02-12T05:13:35.041Z,11.90
2023-02-12T05:16:04.873Z,12.98
2023-02-12T05:18:32.499Z,11.35
2023-02-12T05:21:00.928Z,11.88
2023-02-12T05:23:29.441Z,12.23
2023-02-12T05:25:59.010Z,11.75
2023-02-12T05:28:25.770Z,12.88
2023-02-12T05:30:52.269Z,13.45
2023-02-12T05:33:18.618Z,15.30
2023-02-12T05:35:45.012Z,13.95
2023-02-12T05:38:11.360Z,12.32
2023-02-12T05:40:37.811Z,12.40
2023-02-12T05:43:04.136Z,12.48
2023-02-12T05:45:32.947Z,12.90
2023-02-12T05:47:59.273Z,14.23
2023-02-12T05:50:25.618Z,14.00
2023-02-12T05:52:51.923Z,14.82
2023-02-12T05:55:18.260Z,13.30
2023-02-12T05:57:44.546Z,23.27
2023-02-12T06:00:11.717Z,21.50
2023-02-12T06:02:38.054Z,15.50
2023-02-12T06:05:04.681Z,18.17
2023-02-12T06:07:30.960Z,14.07
2023-02-12T06:09:57.274Z,13.05
2023-02-12T06:12:23.705Z,13.10
2023-02-12T06:14:50.199Z,12.98
2023-02-12T06:17:16.487Z,11.93
2023-02-12T06:19:42.829Z,13.10
2023-02-12T06:22:09.120Z,12.13
2023-02-12T06:24:35.569Z,12.43
2023-02-12T06:27:01.874Z,11.85
2023-02-12T06:29:28.355Z,12.70
2023-02-12T06:31:54.787Z,11.85
2023-02-12T06:34:21.159Z,12.27
2023-02-12T06:36:47.979Z,12.07
2023-02-12T06:39:16.145Z,12.82
2023-02-12T06:41:42.848Z,12.38
2023-02-12T06:44:11.225Z,12.48
2023-02-12T06:46:37.719Z,12.65
2023-02-12T06:49:04.150Z,12.30
2023-02-12T06:51:30.572Z,11.05
2023-02-12T06:53:57.198Z,11.68
2023-02-12T06:56:24.989Z,12.57
2023-02-12T06:58:57.027Z,12.93
2023-02-12T07:01:26.492Z,12.25
2023-02-12T07:03:55.275Z,12.57
2023-02-12T07:06:22.292Z,12.57
2023-02-12T07:08:48.952Z,13.43
2023-02-12T07:11:17.167Z,12.90
2023-02-12T07:13:44.741Z,13.10
2023-02-12T07:16:14.274Z,11.77
2023-02-12T07:18:41.104Z,12.25
2023-02-12T07:21:08.517Z,13.18
2023-02-12T07:23:35.663Z,13.50
2023-02-12T07:26:04.867Z,12.82
2023-02-12T07:28:31.736Z,13.35
2023-02-12T07:30:58.094Z,13.70
2023-02-12T07:33:24.535Z,13.75
2023-02-12T07:35:51.095Z,12.98
2023-02-12T07:38:17.385Z,12.13
2023-02-12T07:40:43.684Z,13.80
2023-02-12T07:43:10.053Z,16.05
2023-02-12T07:45:36.464Z,13.68
2023-02-12T07:48:02.805Z,12.98
2023-02-12T07:50:29.287Z,13.35
2023-02-12T07:52:55.679Z,13.63
2023-02-12T07:55:21.969Z,13.68
2023-02-12T07:57:48.484Z,13.52
2023-02-12T08:00:15.488Z,13.15
2023-02-12T08:02:41.923Z,12.55
2023-02-12T08:05:08.287Z,13.90
2023-02-12T08:07:34.598Z,12.75
2023-02-12T08:10:00.941Z,12.60
2023-02-12T08:12:27.237Z,13.77
2023-02-12T08:14:53.536Z,14.10
2023-02-12T08:17:19.841Z,18.10
2023-02-12T08:19:46.130Z,21.30
2023-02-12T08:22:13.002Z,17.50
2023-02-12T08:24:39.320Z,14.18
2023-02-12T08:27:05.623Z,13.55
2023-02-12T08:29:32.075Z,14.27
2023-02-12T08:32:00.742Z,13.77
2023-02-12T08:34:31.060Z,14.05
2023-02-12T08:36:58.054Z,14.38
2023-02-12T08:39:26.021Z,14.55
2023-02-12T08:41:54.978Z,14.40
2023-02-12T08:44:21.561Z,14.05
2023-02-12T08:46:50.994Z,14.50
2023-02-12T08:49:20.203Z,15.45
2023-02-12T08:51:48.921Z,13.95
2023-02-12T08:54:20.794Z,14.95
2023-02-12T08:56:47.188Z,13.55
2023-02-12T08:59:14.955Z,13.80
2023-02-12T09:01:42.520Z,13.45
2023-02-12T09:06:39.669Z,13.05
2023-02-12T09:09:06.001Z,14.43
2023-02-12T09:11:34.358Z,12.93
2023-02-12T09:14:06.759Z,13.98
2023-02-12T09:16:34.841Z,13.50
2023-02-12T09:19:01.233Z,14.50
2023-02-12T09:21:28.172Z,13.35
2023-02-12T09:23:54.616Z,13.00
2023-02-12T09:26:23.474Z,15.07
2023-02-12T09:28:50.557Z,13.60
2023-02-12T09:31:23.527Z,14.25
2023-02-12T09:33:53.380Z,15.07
2023-02-12T09:36:21.456Z,13.57
2023-02-12T09:38:48.065Z,13.63
2023-02-12T09:41:36.035Z,14.43
2023-02-12T09:44:20.799Z,13.18
2023-02-12T09:46:56.300Z,13.90
2023-02-12T09:49:48.707Z,14.25
2023-02-12T09:52:19.117Z,13.18
2023-02-12T09:54:47.810Z,13.40
2023-02-12T09:57:26.235Z,14.23
2023-02-12T09:59:58.309Z,13.70
2023-02-12T10:02:24.815Z,13.13
2023-02-12T10:05:01.195Z,14.27
2023-02-12T10:07:28.024Z,14.43
2023-02-12T10:10:21.581Z,13.52
2023-02-12T10:12:55.323Z,13.25
2023-02-12T10:15:45.407Z,15.27
2023-02-12T10:18:34.092Z,14.48
2023-02-12T10:21:21.670Z,12.32
2023-02-12T10:24:16.667Z,11.95
2023-02-12T10:26:47.955Z,11.90
2023-02-12T10:29:18.801Z,10.45
2023-02-12T10:31:50.500Z,11.05
2023-02-12T10:34:20.972Z,11.73
2023-02-12T10:36:49.277Z,13.25
2023-02-12T10:39:19.941Z,13.75
2023-02-12T10:41:58.488Z,12.85
2023-02-12T10:44:25.054Z,12.55
2023-02-12T10:46:51.474Z,12.30
2023-02-12T10:49:19.858Z,11.88
2023-02-12T10:52:16.915Z,11.45
2023-02-12T10:54:47.932Z,11.38
2023-02-12T10:57:16.985Z,12.02
2023-02-12T10:59:45.375Z,10.88
2023-02-12T11:02:32.892Z,11.07
2023-02-12T11:05:01.105Z,11.55
2023-02-12T11:07:28.019Z,11.20
2023-02-12T11:09:56.704Z,11.75
2023-02-12T11:12:36.686Z,10.20
2023-02-12T11:15:19.544Z,10.93
2023-02-12T11:17:56.103Z,13.30
2023-02-12T11:20:26.640Z,14.35
2023-02-12T11:22:59.227Z,15.77
2023-02-12T11:25:31.609Z,8.88
2023-02-12T11:28:15.213Z,8.93
2023-02-12T11:30:50.584Z,9.68
2023-02-12T11:33:23.710Z,9.90
2023-02-12T11:36:13.281Z,9.30
2023-02-12T11:38:49.805Z,10.18
2023-02-12T11:41:25.640Z,9.57
2023-02-12T11:43:52.979Z,9.55
2023-02-12T11:46:23.407Z,11.82
2023-02-12T11:48:52.135Z,11.10
2023-02-12T11:51:26.251Z,11.40
2023-02-12T11:53:55.042Z,12.38
2023-02-12T11:56:21.621Z,11.10
2023-02-12T11:58:49.697Z,11.73
2023-02-12T12:01:24.022Z,10.77
2023-02-12T12:04:12.771Z,11.55
2023-02-12T12:06:58.239Z,11.32
2023-02-12T12:09:45.947Z,11.30
2023-02-12T12:12:36.234Z,11.27
2023-02-12T12:15:15.292Z,12.70
2023-02-12T12:17:53.794Z,11.75
2023-02-12T12:20:26.060Z,12.13
2023-02-12T12:23:15.899Z,12.55
2023-02-12T12:25:47.863Z,13.27
2023-02-12T12:28:40.498Z,12.88
2023-02-12T12:31:10.050Z,12.38
2023-02-12T12:33:56.536Z,11.75
2023-02-12T12:36:25.922Z,11.55
2023-02-12T12:39:30.527Z,12.27
2023-02-12T12:42:28.260Z,12.63
2023-02-12T12:47:36.406Z,11.30
2023-02-12T12:50:21.122Z,11.63
2023-02-12T12:53:07.658Z,11.63
2023-02-12T12:55:52.584Z,11.05
2023-02-12T12:58:40.786Z,12.60
2023-02-12T13:01:40.429Z,12.23
2023-02-12T13:04:23.506Z,12.00
2023-02-12T13:07:01.845Z,12.77
2023-02-12T13:09:46.148Z,12.60
2023-02-12T13:12:50.082Z,13.38
2023-02-12T13:17:48.093Z,12.75
2023-02-12T13:20:35.664Z,12.35
2023-02-12T13:23:13.721Z,13.23
2023-02-12T13:26:01.544Z,13.13
2023-02-12T13:28:40.747Z,12.77
2023-02-12T13:31:32.618Z,12.57
2023-02-12T13:34:04.160Z,14.20
2023-02-12T13:36:32.320Z,13.43
2023-02-12T13:39:10.534Z,13.00
2023-02-12T13:41:37.201Z,13.90
2023-02-12T13:44:26.426Z,12.38
2023-02-12T13:47:06.830Z,12.75
2023-02-12T13:49:49.411Z,12.75
2023-02-12T13:52:34.287Z,13.52
2023-02-12T13:55:19.215Z,11.85
2023-02-12T13:57:45.523Z,13.63
2023-02-12T14:00:49.486Z,13.73
2023-02-12T14:03:15.957Z,14.65
2023-02-12T14:05:42.545Z,13.15
2023-02-12T14:08:34.756Z,12.50
2023-02-12T14:11:08.864Z,12.10
2023-02-12T14:14:04.321Z,13.02
2023-02-12T14:16:30.618Z,12.38
2023-02-12T14:19:36.441Z,12.57
2023-02-12T14:22:10.942Z,11.82
2023-02-12T14:24:37.216Z,13.18
2023-02-12T14:27:25.602Z,12.52
2023-02-12T14:30:07.044Z,13.90
2023-02-12T14:32:51.647Z,12.27
2023-02-12T14:35:27.207Z,11.52
2023-02-12T14:37:55.660Z,13.07
2023-02-12T14:40:39.028Z,12.23
2023-02-12T14:43:24.109Z,12.48
2023-02-12T14:45:50.460Z,11.98
2023-02-12T14:49:01.735Z,12.93
2023-02-12T14:51:37.780Z,12.57
2023-02-12T14:54:13.639Z,13.35
2023-02-12T14:56:47.436Z,13.05
2023-02-12T14:59:20.872Z,13.13
2023-02-12T15:01:48.943Z,12.50
2023-02-12T15:04:29.856Z,12.90
2023-02-12T15:07:07.026Z,13.05
2023-02-12T15:09:39.184Z,12.60
2023-02-12T15:12:12.603Z,12.68
2023-02-12T15:14:43.041Z,12.50
2023-02-12T15:17:20.709Z,13.30
2023-02-12T15:19:51.655Z,13.77
2023-02-12T15:22:36.669Z,12.57
2023-02-12T15:25:31.924Z,11.80
2023-02-12T15:28:06.661Z,13.18
2023-02-12T15:30:36.015Z,12.90
2023-02-12T15:33:07.444Z,11.75
2023-02-12T15:35:39.704Z,11.70
2023-02-12T15:38:07.184Z,13.00
2023-02-12T15:40:34.203Z,13.02
2023-02-12T15:43:03.309Z,14.63
2023-02-12T15:45:33.645Z,15.95
2023-02-12T15:48:17.333Z,12.82
2023-02-12T15:50:59.654Z,13.75
2023-02-12T15:53:28.689Z,13.85
2023-02-12T15:55:55.387Z,14.93
2023-02-12T15:58:31.590Z,14.00
2023-02-12T16:01:03.926Z,13.32
2023-02-12T16:03:31.573Z,13.18
2023-02-12T16:08:29.997Z,12.80
2023-02-12T16:10:57.595Z,15.40
2023-02-12T16:16:11.591Z,14.55
2023-02-12T16:18:39.523Z,13.57
2023-02-12T16:21:18.541Z,14.18
2023-02-12T16:23:47.068Z,14.80
2023-02-12T16:26:22.913Z,15.20
2023-02-12T16:28:52.541Z,15.88
2023-02-12T16:31:20.573Z,14.70
2023-02-12T16:33:49.965Z,14.50
2023-02-12T16:36:22.104Z,14.60
2023-02-12T16:38:54.082Z,13.85
2023-02-12T16:41:20.322Z,15.40
2023-02-12T16:43:48.872Z,15.93
2023-02-12T16:46:17.395Z,16.33
2023-02-12T16:48:49.258Z,14.77
2023-02-12T16:51:34.133Z,16.60
2023-02-12T16:54:02.557Z,16.27
2023-02-12T16:56:34.083Z,18.15
2023-02-12T16:59:01.340Z,17.75
2023-02-12T17:01:30.792Z,17.77
2023-02-12T17:03:59.234Z,16.25
2023-02-12T17:06:28.332Z,16.40
2023-02-12T17:08:55.468Z,15.82
2023-02-12T17:11:23.221Z,14.98
2023-02-12T17:13:53.546Z,15.07
2023-02-12T17:16:30.228Z,16.08
2023-02-12T17:18:58.313Z,16.10
2023-02-12T17:21:31.506Z,16.40
2023-02-12T17:23:58.111Z,16.58
2023-02-12T17:26:25.089Z,14.45
2023-02-12T17:28:51.438Z,14.82
2023-02-12T17:31:17.837Z,14.15
2023-02-12T17:33:44.173Z,15.65
2023-02-12T17:36:11.684Z,16.27
2023-02-12T17:38:38.010Z,15.63
2023-02-12T17:41:09.549Z,14.02
2023-02-12T17:43:35.894Z,13.68
2023-02-12T17:46:02.250Z,14.80
2023-02-12T17:48:28.567Z,14.45
2023-02-12T17:50:55.599Z,17.00
2023-02-12T17:53:21.976Z,19.83
2023-02-12T17:55:48.321Z,18.65
2023-02-12T17:58:14.634Z,18.58
2023-02-12T18:00:41.480Z,16.67
2023-02-12T18:03:07.788Z,16.38
2023-02-12T18:05:34.098Z,16.58
2023-02-12T18:08:00.473Z,14.77
2023-02-12T18:10:26.904Z,16.13
2023-02-12T18:12:53.193Z,17.55
2023-02-12T18:15:19.602Z,16.02
2023-02-12T18:17:45.927Z,15.65
2023-02-12T18:20:12.512Z,15.63
2023-02-12T18:22:38.891Z,14.77
2023-02-12T18:25:05.896Z,16.83
2023-02-12T18:27:32.180Z,15.40
2023-02-12T18:29:58.583Z,14.57
2023-02-12T18:32:24.906Z,13.60
2023-02-12T18:38:17.881Z,14.38
2023-02-12T18:40:44.188Z,12.60
2023-02-12T18:43:15.527Z,14.13
2023-02-12T18:45:42.005Z,15.70
2023-02-12T18:48:13.442Z,14.32
2023-02-12T18:50:39.794Z,16.25
2023-02-12T18:53:06.262Z,14.85
2023-02-12T18:55:32.695Z,19.15
2023-02-12T18:57:59.019Z,20.20
2023-02-12T19:00:26.035Z,17.10
2023-02-12T19:02:52.342Z,17.50
2023-02-12T19:05:18.674Z,17.10
2023-02-12T19:07:45.039Z,15.10
2023-02-12T19:10:11.602Z,15.18
2023-02-12T19:12:37.921Z,15.40
2023-02-12T19:15:04.557Z,17.63
2023-02-12T19:17:30.889Z,16.83
2023-02-12T19:19:57.248Z,17.77
2023-02-12T19:22:23.582Z,16.13
2023-02-12T19:24:50.688Z,14.82
2023-02-12T19:27:17.056Z,14.27
2023-02-12T19:29:43.667Z,15.85
2023-02-12T19:32:10.022Z,16.77
2023-02-12T19:34:36.395Z,16.73
2023-02-12T19:37:02.760Z,14.98
2023-02-12T19:39:29.077Z,16.27
2023-02-12T19:41:55.457Z,17.58
2023-02-12T19:44:24.283Z,19.17
2023-02-12T19:46:51.291Z,20.00
2023-02-12T19:49:24.829Z,19.92
2023-02-12T19:51:51.539Z,20.75
2023-02-12T19:54:19.976Z,20.40
2023-02-12T19:56:46.914Z,19.88
2023-02-12T19:59:14.839Z,19.67
2023-02-12T20:01:41.197Z,19.58
2023-02-12T20:04:07.533Z,19.23
2023-02-12T20:06:36.659Z,20.33
2023-02-12T20:09:04.177Z,22.42
2023-02-12T20:11:32.376Z,21.15
2023-02-12T20:14:00.518Z,23.38
2023-02-12T20:16:29.031Z,21.33
2023-02-12T20:18:55.314Z,21.00
2023-02-12T20:21:25.555Z,21.38
2023-02-12T20:23:51.904Z,21.00
2023-02-12T20:26:18.737Z,20.45
2023-02-12T20:28:46.362Z,20.90
2023-02-12T20:31:21.408Z,20.75
2023-02-12T20:33:48.321Z,22.52
2023-02-12T20:36:15.238Z,20.52
2023-02-12T20:38:43.016Z,20.92
2023-02-12T20:41:09.854Z,20.88
2023-02-12T20:43:37.714Z,21.00
2023-02-12T20:46:09.374Z,20.08
2023-02-12T20:48:35.857Z,20.02
2023-02-12T20:51:04.774Z,19.30
2023-02-12T20:53:31.067Z,20.17
2023-02-12T20:56:07.579Z,21.67
2023-02-12T20:58:34.223Z,20.40
2023-02-12T21:01:08.712Z,20.23
2023-02-12T21:03:35.419Z,21.73
2023-02-12T21:06:02.227Z,20.80
2023-02-12T21:08:29.410Z,22.58
2023-02-12T21:11:10.472Z,21.80
2023-02-12T21:13:36.772Z,25.25
2023-02-12T21:16:05.476Z,25.58
2023-02-12T21:18:31.809Z,26.33
2023-02-12T21:21:02.995Z,25.90
2023-02-12T21:23:29.291Z,23.88
2023-02-12T21:26:00.070Z,28.30
2023-02-12T21:28:26.439Z,30.45
2023-02-12T21:30:52.756Z,29.13
2023-02-12T21:33:19.064Z,26.85
2023-02-12T21:35:45.339Z,24.90
2023-02-12T21:38:11.643Z,23.10
2023-02-12T21:40:37.943Z,22.58
2023-02-12T21:43:04.220Z,22.98
2023-02-12T21:45:30.566Z,21.13
2023-02-12T21:47:56.889Z,21.20
2023-02-12T21:50:23.182Z,20.15
2023-02-12T21:52:51.936Z,20.38
2023-02-12T21:55:18.212Z,19.60
2023-02-12T21:57:44.544Z,20.48
2023-02-12T22:00:11.439Z,20.05
2023-02-12T22:02:37.766Z,20.58
2023-02-12T22:05:04.120Z,21.75
2023-02-12T22:07:30.399Z,20.52
2023-02-12T22:09:56.757Z,22.30
2023-02-12T22:12:23.056Z,19.73
2023-02-12T22:14:49.355Z,20.52
2023-02-12T22:17:15.681Z,20.95
2023-02-12T22:19:41.965Z,20.42
2023-02-12T22:22:08.272Z,19.65
2023-02-12T22:24:34.638Z,21.85
2023-02-12T22:27:00.922Z,23.25
2023-02-12T22:29:27.227Z,19.73
2023-02-12T22:31:53.684Z,20.15
2023-02-12T22:34:20.031Z,20.70
2023-02-12T22:36:47.035Z,21.13
2023-02-12T22:39:14.325Z,20.13
2023-02-12T22:41:41.452Z,19.45
2023-02-12T22:44:10.534Z,18.73
2023-02-12T22:46:36.892Z,21.75
2023-02-12T22:49:03.268Z,20.08
2023-02-12T22:51:31.963Z,20.45
2023-02-12T22:53:58.587Z,20.60
2023-02-12T22:56:25.577Z,20.33
2023-02-12T22:58:57.154Z,19.95
2023-02-12T23:01:24.122Z,19.08
2023-02-12T23:03:50.474Z,19.42
2023-02-12T23:06:19.765Z,19.05
2023-02-12T23:08:50.503Z,19.27
2023-02-12T23:11:17.282Z,18.73
2023-02-12T23:13:43.976Z,17.23
2023-02-12T23:16:10.425Z,18.00
2023-02-12T23:18:36.839Z,18.13
2023-02-12T23:21:03.398Z,17.90
2023-02-12T23:23:30.209Z,17.65
2023-02-12T23:25:56.488Z,16.00
2023-02-12T23:28:23.096Z,17.70
2023-02-12T23:30:50.999Z,18.52
2023-02-12T23:33:18.145Z,16.83
2023-02-12T23:35:45.214Z,17.58
2023-02-12T23:38:11.905Z,17.42
2023-02-12T23:40:38.534Z,15.73
2023-02-12T23:43:05.320Z,17.60
2023-02-12T23:45:32.134Z,15.90
2023-02-12T23:47:59.022Z,16.98
2023-02-12T23:50:25.684Z,16.33
2023-02-12T23:52:52.375Z,16.73
2023-02-12T23:55:19.382Z,16.05
2023-02-12T23:57:47.044Z,15.63
